createdAt,value
2023-05-19T00:00:57.002Z,10.31
2023-05-19T00:01:57.055Z,10.31
2023-05-19T00:02:57.114Z,10.28
2023-05-19T00:03:57.079Z,10.26
2023-05-19T00:04:57.051Z,10.26
2023-05-19T00:05:57.129Z,10.26
2023-05-19T00:06:57.091Z,10.25
2023-05-19T00:07:57.132Z,10.25
2023-05-19T00:08:57.120Z,10.26
2023-05-19T00:09:57.130Z,10.26
2023-05-19T00:10:57.143Z,10.26
2023-05-19T00:11:57.164Z,10.25
2023-05-19T00:12:57.184Z,10.23
2023-05-19T00:13:57.190Z,10.23
2023-05-19T00:14:57.207Z,10.25
2023-05-19T00:15:57.268Z,10.23
2023-05-19T00:16:57.255Z,10.23
2023-05-19T00:17:57.297Z,10.25
2023-05-19T00:18:57.381Z,10.22
2023-05-19T00:19:57.279Z,10.23
2023-05-19T00:20:57.290Z,10.22
2023-05-19T00:21:57.320Z,10.20
2023-05-19T00:22:57.312Z,10.19
2023-05-19T00:23:57.332Z,10.19
2023-05-19T00:24:57.338Z,10.19
2023-05-19T00:25:57.357Z,10.19
2023-05-19T00:26:57.371Z,10.17
2023-05-19T00:27:57.390Z,10.15
2023-05-19T00:28:57.395Z,10.15
2023-05-19T00:29:57.421Z,10.13
2023-05-19T00:30:57.443Z,10.15
2023-05-19T00:31:57.475Z,10.15
2023-05-19T00:32:57.496Z,10.15
2023-05-19T00:33:57.487Z,10.13
2023-05-19T00:34:57.484Z,10.13
2023-05-19T00:35:57.523Z,10.13
2023-05-19T00:36:57.504Z,10.15
2023-05-19T00:37:57.522Z,10.13
2023-05-19T00:38:57.565Z,10.15
2023-05-19T00:39:57.551Z,10.15
2023-05-19T00:40:57.586Z,10.15
2023-05-19T00:41:57.573Z,10.15
2023-05-19T00:42:57.588Z,10.13
2023-05-19T00:43:57.607Z,10.13
2023-05-19T00:44:57.635Z,10.15
2023-05-19T00:45:57.667Z,10.12
2023-05-19T00:46:57.789Z,10.12
2023-05-19T00:47:57.712Z,10.12
2023-05-19T00:48:57.681Z,10.12
2023-05-19T00:49:57.712Z,10.12
2023-05-19T00:50:57.709Z,10.13
2023-05-19T00:51:57.730Z,10.12
2023-05-19T00:52:57.736Z,10.13
2023-05-19T00:53:57.769Z,10.12
2023-05-19T00:54:57.802Z,10.12
2023-05-19T00:55:57.797Z,10.12
2023-05-19T00:56:57.802Z,10.12
2023-05-19T00:57:57.836Z,10.09
2023-05-19T00:58:57.840Z,10.09
2023-05-19T00:59:57.853Z,10.05
2023-05-19T01:00:57.935Z,10.05
2023-05-19T01:01:57.887Z,10.05
2023-05-19T01:02:57.971Z,10.04
2023-05-19T01:03:58.007Z,10.05
2023-05-19T01:04:57.941Z,10.04
2023-05-19T01:05:57.949Z,10.04
2023-05-19T01:06:57.966Z,10.05
2023-05-19T01:07:57.987Z,10.05
2023-05-19T01:08:57.990Z,10.05
2023-05-19T01:09:58.007Z,10.05
2023-05-19T01:10:58.121Z,10.04
2023-05-19T01:11:58.026Z,10.04
2023-05-19T01:12:58.061Z,10.04
2023-05-19T01:13:58.055Z,10.04
2023-05-19T01:14:58.072Z,10.02
2023-05-19T01:15:58.100Z,10.02
2023-05-19T01:16:58.123Z,10.02
2023-05-19T01:17:58.170Z,10.04
2023-05-19T01:18:58.181Z,10.04
2023-05-19T01:19:58.148Z,10.01
2023-05-19T01:20:58.157Z,10.01
2023-05-19T01:21:58.169Z,10.01
2023-05-19T01:22:58.205Z,9.99
2023-05-19T01:23:58.192Z,9.99
2023-05-19T01:24:58.221Z,9.99
2023-05-19T01:25:58.223Z,9.98
2023-05-19T01:26:58.270Z,9.99
2023-05-19T01:27:58.255Z,9.99
2023-05-19T01:28:58.286Z,9.97
2023-05-19T01:29:58.294Z,9.97
2023-05-19T01:30:58.337Z,9.95
2023-05-19T01:31:58.374Z,9.94
2023-05-19T01:32:58.391Z,9.94
2023-05-19T01:33:58.366Z,9.94
2023-05-19T01:34:58.378Z,9.92
2023-05-19T01:35:58.436Z,9.94
2023-05-19T01:36:58.424Z,9.91
2023-05-19T01:37:58.431Z,9.91
2023-05-19T01:38:58.448Z,9.89
2023-05-19T01:39:58.457Z,9.87
2023-05-19T01:40:58.499Z,9.87
2023-05-19T01:41:58.486Z,9.86
2023-05-19T01:42:58.509Z,9.84
2023-05-19T01:43:58.525Z,9.83
2023-05-19T01:44:58.560Z,9.83
2023-05-19T01:45:58.818Z,9.80
2023-05-19T01:46:58.569Z,9.79
2023-05-19T01:47:58.653Z,9.77
2023-05-19T01:48:58.609Z,9.79
2023-05-19T01:49:58.637Z,9.77
2023-05-19T01:50:58.665Z,9.77
2023-05-19T01:51:58.651Z,9.76
2023-05-19T01:52:58.679Z,9.76
2023-05-19T01:53:58.696Z,9.76
2023-05-19T01:54:58.739Z,9.74
2023-05-19T01:55:58.716Z,9.72
2023-05-19T01:57:04.737Z,9.69
2023-05-19T01:57:58.747Z,9.68
2023-05-19T01:58:58.788Z,9.68
2023-05-19T01:59:58.794Z,9.66
2023-05-19T02:00:58.871Z,9.66
2023-05-19T02:01:58.817Z,9.65
2023-05-19T02:02:58.896Z,9.65
2023-05-19T02:03:58.923Z,9.65
2023-05-19T02:04:58.873Z,9.66
2023-05-19T02:05:58.899Z,9.66
2023-05-19T02:06:58.914Z,9.66
2023-05-19T02:07:58.931Z,9.64
2023-05-19T02:08:58.974Z,9.65
2023-05-19T02:09:58.955Z,9.65
2023-05-19T02:10:58.980Z,9.64
2023-05-19T02:11:58.997Z,9.62
2023-05-19T02:12:59.035Z,9.61
2023-05-19T02:13:59.051Z,9.59
2023-05-19T02:14:59.050Z,9.59
2023-05-19T02:15:59.098Z,9.56
2023-05-19T02:16:59.078Z,9.56
2023-05-19T02:17:59.186Z,9.51
2023-05-19T02:18:59.135Z,9.51
2023-05-19T02:19:59.130Z,9.50
2023-05-19T02:20:59.145Z,9.50
2023-05-19T02:21:59.180Z,9.47
2023-05-19T02:22:59.205Z,9.46
2023-05-19T02:23:59.189Z,9.44
2023-05-19T02:24:59.214Z,9.41
2023-05-19T02:25:59.229Z,9.40
2023-05-19T02:26:59.275Z,9.37
2023-05-19T02:27:59.265Z,9.34
2023-05-19T02:28:59.275Z,9.32
2023-05-19T02:29:59.296Z,9.29
2023-05-19T02:30:59.315Z,9.28
2023-05-19T02:31:59.365Z,9.26
2023-05-19T02:32:59.359Z,9.22
2023-05-19T02:33:59.364Z,9.22
2023-05-19T02:34:59.379Z,9.21
2023-05-19T02:35:59.394Z,9.16
2023-05-19T02:36:59.441Z,9.13
2023-05-19T02:37:59.420Z,9.14
2023-05-19T02:38:59.445Z,9.11
2023-05-19T02:39:59.451Z,9.11
2023-05-19T02:40:59.488Z,9.10
2023-05-19T02:41:59.478Z,9.08
2023-05-19T02:42:59.500Z,9.06
2023-05-19T02:43:59.512Z,9.04
2023-05-19T02:44:59.539Z,9.04
2023-05-19T02:45:59.605Z,9.02
2023-05-19T02:46:59.565Z,9.00
2023-05-19T02:47:59.648Z,9.00
2023-05-19T02:48:59.600Z,9.02
2023-05-19T02:49:59.633Z,9.00
2023-05-19T02:50:59.646Z,9.00
2023-05-19T02:51:59.651Z,8.97
2023-05-19T02:52:59.668Z,8.94
2023-05-19T02:53:59.683Z,8.94
2023-05-19T02:54:59.721Z,8.92
2023-05-19T02:55:59.718Z,8.94
2023-05-19T02:56:59.743Z,8.94
2023-05-19T02:57:59.757Z,8.95
2023-05-19T02:58:59.792Z,8.94
2023-05-19T02:59:59.806Z,8.94
2023-05-19T03:00:59.800Z,8.92
2023-05-19T03:01:59.917Z,8.94
2023-05-19T03:02:59.916Z,8.92
2023-05-19T03:03:59.919Z,8.92
2023-05-19T03:04:59.900Z,8.91
2023-05-19T03:05:59.900Z,8.92
2023-05-19T03:06:59.919Z,8.91
2023-05-19T03:07:59.928Z,8.91
2023-05-19T03:08:59.970Z,8.88
2023-05-19T03:09:59.963Z,8.88
2023-05-19T03:10:59.990Z,8.85
2023-05-19T03:12:00.009Z,8.84
2023-05-19T03:13:00.012Z,8.85
2023-05-19T03:14:00.058Z,8.82
2023-05-19T03:15:00.067Z,8.82
2023-05-19T03:16:00.183Z,8.79
2023-05-19T03:17:00.181Z,8.79
2023-05-19T03:18:00.204Z,8.78
2023-05-19T03:19:00.248Z,8.76
2023-05-19T03:20:00.222Z,8.76
2023-05-19T03:21:00.166Z,8.76
2023-05-19T03:22:00.187Z,8.76
2023-05-19T03:23:00.226Z,8.76
2023-05-19T03:24:00.214Z,8.73
2023-05-19T03:25:00.236Z,8.73
2023-05-19T03:26:00.247Z,8.70
2023-05-19T03:27:00.275Z,8.70
2023-05-19T03:28:00.307Z,8.69
2023-05-19T03:29:00.305Z,8.70
2023-05-19T03:30:00.318Z,8.69
2023-05-19T03:31:00.374Z,8.69
2023-05-19T03:32:00.477Z,8.64
2023-05-19T03:33:00.503Z,8.64
2023-05-19T03:34:00.403Z,8.61
2023-05-19T03:35:00.441Z,8.63
2023-05-19T03:36:00.440Z,8.63
2023-05-19T03:37:00.486Z,8.61
2023-05-19T03:38:00.484Z,8.60
2023-05-19T03:39:00.498Z,8.61
2023-05-19T03:40:00.526Z,8.60
2023-05-19T03:41:00.554Z,8.58
2023-05-19T03:42:00.575Z,8.58
2023-05-19T03:43:00.564Z,8.58
2023-05-19T03:44:00.584Z,8.58
2023-05-19T03:45:00.618Z,8.58
2023-05-19T03:46:00.733Z,8.56
2023-05-19T03:47:00.656Z,8.56
2023-05-19T03:48:00.688Z,8.58
2023-05-19T03:49:00.660Z,8.55
2023-05-19T03:50:00.675Z,8.55
2023-05-19T03:51:00.728Z,8.55
2023-05-19T03:52:00.704Z,8.55
2023-05-19T03:53:00.739Z,8.56
2023-05-19T03:54:00.757Z,8.58
2023-05-19T03:55:00.805Z,8.56
2023-05-19T03:56:00.830Z,8.58
2023-05-19T03:57:00.832Z,8.60
2023-05-19T03:58:00.860Z,8.60
2023-05-19T03:59:00.856Z,8.63
2023-05-19T04:00:00.873Z,8.64
2023-05-19T04:01:00.871Z,8.67
2023-05-19T04:02:00.916Z,8.70
2023-05-19T04:03:01.007Z,8.71
2023-05-19T04:04:01.059Z,8.73
2023-05-19T04:05:00.983Z,8.76
2023-05-19T04:06:01.013Z,8.78
2023-05-19T04:07:01.068Z,8.82
2023-05-19T04:08:01.038Z,8.85
2023-05-19T04:09:01.138Z,8.88
2023-05-19T04:10:01.078Z,8.88
2023-05-19T04:11:01.057Z,8.91
2023-05-19T04:12:01.059Z,8.91
2023-05-19T04:13:01.096Z,8.94
2023-05-19T04:14:01.127Z,8.99
2023-05-19T04:15:01.119Z,9.00
2023-05-19T04:16:01.163Z,9.04
2023-05-19T04:17:01.156Z,9.08
2023-05-19T04:18:01.205Z,9.10
2023-05-19T04:19:01.247Z,9.14
2023-05-19T04:20:01.252Z,9.18
2023-05-19T04:21:01.234Z,9.21
2023-05-19T04:22:01.250Z,9.22
2023-05-19T04:23:01.295Z,9.23
2023-05-19T04:24:01.313Z,9.25
2023-05-19T04:25:01.312Z,9.23
2023-05-19T04:26:01.306Z,9.23
2023-05-19T04:27:01.326Z,9.25
2023-05-19T04:28:01.358Z,9.25
2023-05-19T04:29:01.353Z,9.23
2023-05-19T04:30:01.370Z,9.25
2023-05-19T04:31:01.421Z,9.26
2023-05-19T04:32:01.415Z,9.26
2023-05-19T04:33:01.524Z,9.28
2023-05-19T04:34:01.435Z,9.29
2023-05-19T04:35:01.463Z,9.28
2023-05-19T04:36:01.475Z,9.29
2023-05-19T04:37:01.515Z,9.31
2023-05-19T04:38:01.518Z,9.31
2023-05-19T04:39:01.543Z,9.34
2023-05-19T04:40:01.553Z,9.34
2023-05-19T04:41:01.567Z,9.36
2023-05-19T04:42:01.600Z,9.36
2023-05-19T04:43:01.618Z,9.37
2023-05-19T04:44:01.625Z,9.37
2023-05-19T04:45:01.646Z,9.39
2023-05-19T04:46:01.663Z,9.41
2023-05-19T04:47:01.852Z,9.41
2023-05-19T04:48:01.718Z,9.43
2023-05-19T04:49:01.719Z,9.44
2023-05-19T04:50:01.752Z,9.47
2023-05-19T04:51:01.919Z,9.48
2023-05-19T04:52:01.764Z,9.48
2023-05-19T04:53:01.814Z,9.48
2023-05-19T04:54:01.836Z,9.47
2023-05-19T04:55:01.814Z,9.51
2023-05-19T04:56:01.847Z,9.58
2023-05-19T04:57:01.849Z,9.61
2023-05-19T04:58:01.867Z,9.65
2023-05-19T04:59:01.893Z,9.65
2023-05-19T05:00:01.902Z,9.69
2023-05-19T05:01:01.948Z,9.72
2023-05-19T05:02:01.977Z,9.76
2023-05-19T05:03:02.047Z,9.77
2023-05-19T05:04:02.011Z,9.80
2023-05-19T05:05:02.014Z,9.86
2023-05-19T05:06:02.019Z,9.91
2023-05-19T05:07:02.020Z,9.99
2023-05-19T05:08:02.040Z,9.99
2023-05-19T05:09:02.046Z,10.02
2023-05-19T05:10:02.077Z,10.04
2023-05-19T05:11:02.102Z,10.04
2023-05-19T05:12:02.095Z,10.07
2023-05-19T05:13:02.099Z,10.09
2023-05-19T05:14:02.136Z,10.16
2023-05-19T05:15:02.165Z,10.23
2023-05-19T05:16:02.213Z,10.28
2023-05-19T05:17:02.168Z,10.31
2023-05-19T05:18:02.219Z,10.37
2023-05-19T05:19:02.262Z,10.37
2023-05-19T05:20:02.232Z,10.37
2023-05-19T05:21:02.230Z,10.34
2023-05-19T05:22:02.266Z,10.34
2023-05-19T05:23:02.258Z,10.31
2023-05-19T05:24:02.318Z,10.33
2023-05-19T05:25:02.287Z,10.33
2023-05-19T05:26:02.303Z,10.33
2023-05-19T05:27:02.317Z,10.35
2023-05-19T05:28:02.346Z,10.34
2023-05-19T05:29:02.365Z,10.34
2023-05-19T05:30:02.354Z,10.35
2023-05-19T05:31:02.403Z,10.35
2023-05-19T05:32:02.410Z,10.37
2023-05-19T05:33:02.476Z,10.41
2023-05-19T05:34:02.423Z,10.42
2023-05-19T05:35:02.433Z,10.46
2023-05-19T05:36:02.462Z,10.48
2023-05-19T05:37:02.473Z,10.48
2023-05-19T05:38:02.514Z,10.48
2023-05-19T05:39:02.507Z,10.46
2023-05-19T05:40:02.520Z,10.46
2023-05-19T05:41:02.511Z,10.51
2023-05-19T05:42:02.574Z,10.59
2023-05-19T05:43:02.582Z,10.60
2023-05-19T05:44:02.784Z,10.60
2023-05-19T05:45:02.589Z,10.57
2023-05-19T05:46:02.664Z,10.53
2023-05-19T05:47:02.649Z,10.53
2023-05-19T05:48:02.727Z,10.54
2023-05-19T05:49:02.649Z,10.53
2023-05-19T05:50:02.668Z,10.51
2023-05-19T05:51:02.679Z,10.49
2023-05-19T05:52:06.428Z,10.53
2023-05-19T05:53:02.717Z,10.54
2023-05-19T05:54:02.719Z,10.59
2023-05-19T05:55:02.728Z,10.59
2023-05-19T05:56:02.784Z,10.63
2023-05-19T05:57:02.803Z,10.68
2023-05-19T05:58:02.782Z,10.72
2023-05-19T05:59:02.807Z,10.76
2023-05-19T06:00:02.816Z,10.74
2023-05-19T06:01:02.857Z,10.74
2023-05-19T06:02:02.875Z,10.76
2023-05-19T06:03:02.965Z,10.81
2023-05-19T06:04:02.877Z,10.90
2023-05-19T06:05:02.934Z,10.94
2023-05-19T06:06:03.016Z,11.00
2023-05-19T06:07:02.905Z,11.05
2023-05-19T06:08:02.920Z,11.08
2023-05-19T06:09:02.963Z,11.07
2023-05-19T06:10:02.976Z,11.04
2023-05-19T06:11:02.972Z,10.94
2023-05-19T06:12:02.976Z,10.93
2023-05-19T06:13:02.987Z,10.99
2023-05-19T06:14:03.004Z,11.07
2023-05-19T06:15:03.033Z,11.11
2023-05-19T06:16:03.067Z,11.14
2023-05-19T06:17:03.053Z,11.12
2023-05-19T06:18:03.076Z,11.17
2023-05-19T06:19:03.203Z,11.17
2023-05-19T06:20:03.116Z,11.10
2023-05-19T06:21:03.123Z,11.10
2023-05-19T06:22:03.138Z,11.15
2023-05-19T06:23:03.157Z,11.17
2023-05-19T06:24:03.181Z,11.17
2023-05-19T06:25:03.175Z,11.22
2023-05-19T06:26:03.195Z,11.29
2023-05-19T06:27:03.209Z,11.36
2023-05-19T06:28:03.221Z,11.41
2023-05-19T06:29:03.249Z,11.47
2023-05-19T06:30:03.267Z,11.48
2023-05-19T06:31:03.346Z,11.44
2023-05-19T06:32:03.282Z,11.45
2023-05-19T06:33:03.354Z,11.51
2023-05-19T06:34:03.336Z,11.60
2023-05-19T06:35:03.322Z,11.62
2023-05-19T06:36:03.359Z,11.59
2023-05-19T06:37:03.354Z,11.62
2023-05-19T06:38:03.389Z,11.63
2023-05-19T06:39:03.383Z,11.59
2023-05-19T06:40:03.396Z,11.60
2023-05-19T06:41:03.404Z,11.57
2023-05-19T06:42:03.444Z,11.65
2023-05-19T06:43:03.452Z,11.75
2023-05-19T06:44:03.454Z,11.86
2023-05-19T06:45:03.468Z,11.94
2023-05-19T06:46:03.512Z,11.95
2023-05-19T06:47:03.585Z,12.02
2023-05-19T06:48:03.582Z,12.09
2023-05-19T06:49:03.528Z,12.13
2023-05-19T06:50:03.548Z,12.20
2023-05-19T06:51:03.552Z,12.21
2023-05-19T06:52:03.594Z,12.25
2023-05-19T06:53:03.615Z,12.25
2023-05-19T06:54:03.606Z,12.24
2023-05-19T06:55:03.617Z,12.25
2023-05-19T06:56:03.632Z,12.21
2023-05-19T06:57:03.645Z,12.22
2023-05-19T06:58:03.664Z,12.27
2023-05-19T06:59:03.672Z,12.32
2023-05-19T07:00:03.692Z,12.40
2023-05-19T07:01:03.719Z,12.47
2023-05-19T07:02:03.794Z,12.54
2023-05-19T07:03:03.818Z,12.57
2023-05-19T07:04:03.815Z,12.53
2023-05-19T07:05:03.772Z,12.47
2023-05-19T07:06:05.658Z,12.49
2023-05-19T07:07:03.796Z,12.49
2023-05-19T07:08:03.823Z,12.49
2023-05-19T07:09:03.823Z,12.47
2023-05-19T07:10:03.868Z,12.53
2023-05-19T07:11:03.884Z,12.53
2023-05-19T07:12:03.879Z,12.55
2023-05-19T07:13:03.896Z,12.47
2023-05-19T07:14:03.909Z,12.32
2023-05-19T07:15:03.937Z,12.22
2023-05-19T07:16:03.990Z,12.17
2023-05-19T07:17:03.967Z,12.13
2023-05-19T07:18:04.021Z,12.12
2023-05-19T07:19:03.987Z,12.09
2023-05-19T07:20:04.005Z,12.09
2023-05-19T07:21:04.010Z,12.09
2023-05-19T07:22:04.018Z,12.07
2023-05-19T07:23:04.035Z,12.06
2023-05-19T07:24:04.065Z,12.04
2023-05-19T07:25:04.080Z,12.00
2023-05-19T07:26:04.090Z,11.99
2023-05-19T07:27:04.089Z,11.95
2023-05-19T07:28:04.170Z,11.90
2023-05-19T07:29:04.149Z,11.90
2023-05-19T07:30:04.153Z,11.86
2023-05-19T07:31:04.154Z,11.81
2023-05-19T07:32:04.271Z,11.75
2023-05-19T07:33:04.220Z,11.72
2023-05-19T07:34:04.704Z,11.65
2023-05-19T07:35:04.217Z,11.60
2023-05-19T07:36:04.244Z,11.57
2023-05-19T07:37:04.259Z,11.57
2023-05-19T07:38:04.288Z,11.57
2023-05-19T07:39:04.313Z,11.59
2023-05-19T07:40:04.295Z,11.62
2023-05-19T07:41:04.359Z,11.62
2023-05-19T07:42:04.348Z,11.65
2023-05-19T07:43:04.374Z,11.68
2023-05-19T07:44:04.358Z,11.70
2023-05-19T07:45:04.371Z,11.70
2023-05-19T07:46:04.416Z,11.72
2023-05-19T07:47:04.412Z,11.73
2023-05-19T07:48:04.492Z,11.77
2023-05-19T07:49:04.442Z,11.81
2023-05-19T07:50:04.457Z,11.81
2023-05-19T07:51:04.497Z,11.83
2023-05-19T07:52:04.500Z,11.84
2023-05-19T07:53:04.505Z,11.84
2023-05-19T07:54:04.509Z,11.91
2023-05-19T07:55:04.518Z,11.99
2023-05-19T07:56:04.529Z,12.00
2023-05-19T07:57:04.564Z,12.03
2023-05-19T07:58:04.561Z,12.06
2023-05-19T07:59:04.573Z,12.07
2023-05-19T08:00:04.592Z,12.12
2023-05-19T08:01:04.605Z,12.15
2023-05-19T08:02:04.643Z,12.17
2023-05-19T08:03:04.704Z,12.18
2023-05-19T08:04:04.791Z,12.17
2023-05-19T08:05:04.670Z,12.15
2023-05-19T08:06:04.690Z,12.13
2023-05-19T08:07:04.720Z,12.13
2023-05-19T08:08:04.723Z,12.13
2023-05-19T08:09:04.730Z,12.21
2023-05-19T08:10:04.751Z,12.20
2023-05-19T08:11:04.782Z,12.09
2023-05-19T08:12:04.779Z,12.04
2023-05-19T08:13:04.786Z,12.04
2023-05-19T08:14:04.815Z,12.07
2023-05-19T08:15:04.828Z,12.09
2023-05-19T08:16:04.892Z,12.13
2023-05-19T08:17:04.859Z,12.17
2023-05-19T08:18:04.970Z,12.17
2023-05-19T08:19:04.899Z,12.18
2023-05-19T08:20:04.936Z,12.17
2023-05-19T08:21:04.918Z,12.18
2023-05-19T08:22:04.932Z,12.20
2023-05-19T08:23:04.942Z,12.17
2023-05-19T08:24:04.973Z,12.09
2023-05-19T08:25:04.993Z,12.10
2023-05-19T08:26:04.994Z,12.13
2023-05-19T08:27:05.028Z,12.15
2023-05-19T08:28:05.020Z,12.13
2023-05-19T08:29:05.045Z,12.10
2023-05-19T08:30:05.070Z,12.09
2023-05-19T08:31:05.091Z,12.10
2023-05-19T08:32:05.083Z,12.10
2023-05-19T08:33:05.139Z,12.13
2023-05-19T08:34:05.128Z,12.10
2023-05-19T08:35:05.135Z,12.07
2023-05-19T08:36:05.141Z,12.07
2023-05-19T08:37:05.149Z,12.07
2023-05-19T08:38:05.186Z,12.10
2023-05-19T08:39:05.228Z,12.15
2023-05-19T08:40:05.207Z,12.25
2023-05-19T08:41:05.212Z,12.24
2023-05-19T08:42:05.233Z,12.24
2023-05-19T08:43:05.241Z,12.24
2023-05-19T08:44:05.282Z,12.25
2023-05-19T08:45:05.270Z,12.24
2023-05-19T08:46:05.290Z,12.24
2023-05-19T08:47:05.400Z,12.25
2023-05-19T08:48:05.462Z,12.29
2023-05-19T08:49:05.363Z,12.39
2023-05-19T08:50:05.358Z,12.42
2023-05-19T08:51:05.377Z,12.43
2023-05-19T08:52:05.407Z,12.45
2023-05-19T08:53:05.448Z,12.45
2023-05-19T08:54:05.417Z,12.53
2023-05-19T08:55:05.421Z,12.61
2023-05-19T08:56:05.436Z,12.67
2023-05-19T08:57:05.455Z,12.72
2023-05-19T08:58:05.490Z,12.75
2023-05-19T08:59:05.478Z,12.76
2023-05-19T09:00:05.531Z,12.72
2023-05-19T09:01:05.536Z,12.73
2023-05-19T09:02:05.551Z,12.70
2023-05-19T09:03:17.568Z,12.72
2023-05-19T09:04:05.726Z,12.73
2023-05-19T09:05:05.711Z,12.70
2023-05-19T09:06:05.631Z,12.60
2023-05-19T09:07:05.640Z,12.54
2023-05-19T09:08:05.643Z,12.53
2023-05-19T09:09:05.647Z,12.54
2023-05-19T09:10:05.661Z,12.55
2023-05-19T09:11:05.688Z,12.61
2023-05-19T09:12:05.711Z,12.61
2023-05-19T09:13:05.705Z,12.65
2023-05-19T09:14:05.766Z,12.68
2023-05-19T09:15:05.733Z,12.70
2023-05-19T09:16:05.810Z,12.72
2023-05-19T09:17:06.013Z,12.72
2023-05-19T09:18:05.810Z,12.78
2023-05-19T09:19:05.812Z,12.83
2023-05-19T09:20:05.821Z,12.87
2023-05-19T09:21:05.834Z,12.85
2023-05-19T09:22:05.862Z,12.86
2023-05-19T09:23:05.865Z,12.94
2023-05-19T09:24:05.877Z,12.87
2023-05-19T09:25:05.917Z,12.85
2023-05-19T09:26:05.916Z,12.91
2023-05-19T09:27:05.929Z,12.91
2023-05-19T09:28:05.945Z,12.95
2023-05-19T09:29:05.960Z,13.04
2023-05-19T09:30:05.992Z,13.16
2023-05-19T09:31:06.011Z,13.27
2023-05-19T09:32:06.065Z,13.37
2023-05-19T09:33:06.080Z,13.39
2023-05-19T09:34:06.051Z,13.44
2023-05-19T09:35:06.086Z,13.47
2023-05-19T09:36:06.226Z,13.52
2023-05-19T09:37:06.090Z,13.56
2023-05-19T09:38:06.098Z,13.59
2023-05-19T09:39:06.138Z,13.52
2023-05-19T09:40:06.164Z,13.42
2023-05-19T09:41:06.159Z,13.31
2023-05-19T09:42:06.171Z,13.16
2023-05-19T09:43:06.197Z,13.18
2023-05-19T09:44:06.218Z,13.12
2023-05-19T09:45:06.284Z,13.11
2023-05-19T09:46:06.298Z,13.09
2023-05-19T09:47:06.252Z,12.95
2023-05-19T09:48:06.286Z,12.86
2023-05-19T09:49:06.293Z,12.78
2023-05-19T09:50:06.285Z,12.76
2023-05-19T09:51:06.368Z,12.73
2023-05-19T09:52:06.316Z,12.72
2023-05-19T09:53:06.332Z,12.72
2023-05-19T09:54:06.365Z,12.67
2023-05-19T09:55:06.375Z,12.60
2023-05-19T09:56:06.385Z,12.53
2023-05-19T09:57:08.133Z,12.54
2023-05-19T09:58:06.421Z,12.57
2023-05-19T09:59:06.429Z,12.62
2023-05-19T10:00:06.443Z,12.67
2023-05-19T10:01:06.566Z,12.68
2023-05-19T10:02:06.460Z,12.65
2023-05-19T10:03:06.557Z,12.64
2023-05-19T10:04:06.493Z,12.62
2023-05-19T10:05:06.577Z,12.65
2023-05-19T10:06:06.527Z,12.58
2023-05-19T10:07:06.549Z,12.53
2023-05-19T10:08:06.580Z,12.58
2023-05-19T10:09:06.561Z,12.62
2023-05-19T10:10:06.589Z,12.60
2023-05-19T10:11:06.622Z,12.65
2023-05-19T10:12:06.639Z,12.70
2023-05-19T10:13:06.650Z,12.73
2023-05-19T10:14:06.645Z,12.78
2023-05-19T10:15:06.654Z,12.80
2023-05-19T10:16:06.733Z,12.80
2023-05-19T10:17:06.736Z,12.75
2023-05-19T10:18:06.782Z,12.76
2023-05-19T10:19:06.750Z,12.80
2023-05-19T10:20:06.736Z,12.85
2023-05-19T10:21:06.767Z,12.94
2023-05-19T10:22:06.765Z,12.95
2023-05-19T10:23:06.769Z,13.00
2023-05-19T10:24:06.781Z,12.98
2023-05-19T10:25:06.803Z,12.94
2023-05-19T10:26:06.881Z,12.91
2023-05-19T10:27:06.825Z,12.82
2023-05-19T10:28:06.833Z,12.80
2023-05-19T10:29:06.854Z,12.91
2023-05-19T10:30:08.283Z,13.00
2023-05-19T10:31:06.887Z,13.04
2023-05-19T10:32:06.945Z,13.08
2023-05-19T10:33:06.926Z,13.05
2023-05-19T10:34:06.925Z,12.98
2023-05-19T10:35:06.953Z,12.91
2023-05-19T10:36:06.967Z,12.83
2023-05-19T10:37:06.974Z,12.87
2023-05-19T10:38:06.977Z,12.95
2023-05-19T10:39:06.995Z,13.00
2023-05-19T10:40:07.040Z,13.03
2023-05-19T10:41:07.023Z,12.98
2023-05-19T10:42:07.038Z,13.01
2023-05-19T10:43:07.055Z,13.08
2023-05-19T10:44:07.063Z,13.08
2023-05-19T10:45:07.105Z,13.08
2023-05-19T10:46:07.099Z,13.01
2023-05-19T10:47:07.229Z,12.98
2023-05-19T10:48:07.168Z,12.90
2023-05-19T10:49:07.170Z,12.91
2023-05-19T10:50:07.203Z,12.91
2023-05-19T10:51:07.234Z,12.90
2023-05-19T10:52:07.199Z,12.82
2023-05-19T10:53:07.220Z,12.72
2023-05-19T10:54:07.247Z,12.60
2023-05-19T10:55:07.256Z,12.58
2023-05-19T10:56:07.267Z,12.61
2023-05-19T10:57:07.275Z,12.70
2023-05-19T10:58:07.289Z,12.76
2023-05-19T10:59:07.324Z,12.76
2023-05-19T11:00:07.325Z,12.73
2023-05-19T11:01:07.351Z,12.78
2023-05-19T11:02:07.471Z,12.90
2023-05-19T11:03:07.440Z,12.95
2023-05-19T11:04:07.569Z,13.00
2023-05-19T11:05:07.424Z,13.04
2023-05-19T11:06:07.416Z,13.09
2023-05-19T11:07:07.441Z,13.08
2023-05-19T11:08:07.473Z,13.05
2023-05-19T11:09:07.471Z,13.04
2023-05-19T11:10:07.483Z,13.05
2023-05-19T11:11:07.497Z,13.04
2023-05-19T11:12:07.525Z,12.94
2023-05-19T11:13:07.540Z,12.87
2023-05-19T11:14:07.534Z,12.85
2023-05-19T11:15:07.556Z,12.85
2023-05-19T11:16:07.623Z,12.83
2023-05-19T11:17:07.632Z,12.80
2023-05-19T11:18:07.618Z,12.67
2023-05-19T11:19:07.656Z,12.57
2023-05-19T11:20:07.624Z,12.54
2023-05-19T11:21:07.702Z,12.53
2023-05-19T11:22:07.675Z,12.53
2023-05-19T11:23:07.724Z,12.53
2023-05-19T11:24:07.736Z,12.53
2023-05-19T11:25:07.688Z,12.54
2023-05-19T11:26:07.713Z,12.55
2023-05-19T11:27:07.736Z,12.57
2023-05-19T11:28:07.736Z,12.61
2023-05-19T11:29:07.749Z,12.64
2023-05-19T11:30:07.774Z,12.65
2023-05-19T11:31:07.815Z,12.65
2023-05-19T11:32:07.861Z,12.67
2023-05-19T11:33:07.915Z,12.70
2023-05-19T11:34:07.830Z,12.70
2023-05-19T11:35:07.859Z,12.64
2023-05-19T11:36:07.881Z,12.65
2023-05-19T11:37:07.884Z,12.67
2023-05-19T11:38:07.872Z,12.70
2023-05-19T11:39:07.892Z,12.76
2023-05-19T11:40:07.915Z,12.83
2023-05-19T11:41:07.953Z,12.90
2023-05-19T11:42:07.932Z,12.95
2023-05-19T11:43:07.948Z,12.93
2023-05-19T11:44:07.987Z,12.90
2023-05-19T11:45:07.974Z,12.90
2023-05-19T11:46:08.233Z,12.90
2023-05-19T11:47:08.052Z,12.90
2023-05-19T11:48:08.180Z,12.91
2023-05-19T11:49:08.138Z,12.86
2023-05-19T11:50:08.101Z,12.79
2023-05-19T11:51:08.144Z,12.75
2023-05-19T11:52:08.135Z,12.72
2023-05-19T11:53:08.110Z,12.67
2023-05-19T11:54:08.205Z,12.68
2023-05-19T11:55:08.146Z,12.70
2023-05-19T11:56:08.165Z,12.76
2023-05-19T11:57:08.176Z,12.79
2023-05-19T11:58:08.167Z,12.82
2023-05-19T11:59:08.213Z,12.82
2023-05-19T12:00:08.277Z,12.86
2023-05-19T12:01:08.240Z,12.90
2023-05-19T12:02:08.296Z,12.95
2023-05-19T12:03:08.704Z,12.94
2023-05-19T12:04:08.309Z,12.94
2023-05-19T12:05:08.329Z,12.93
2023-05-19T12:06:08.370Z,12.91
2023-05-19T12:07:08.311Z,12.78
2023-05-19T12:08:08.323Z,12.73
2023-05-19T12:09:08.354Z,12.76
2023-05-19T12:10:08.470Z,12.82
2023-05-19T12:11:08.364Z,12.90
2023-05-19T12:12:08.566Z,12.97
2023-05-19T12:13:08.395Z,13.00
2023-05-19T12:14:08.380Z,13.03
2023-05-19T12:15:08.398Z,13.09
2023-05-19T12:16:08.457Z,13.15
2023-05-19T12:17:08.450Z,13.20
2023-05-19T12:18:08.567Z,13.23
2023-05-19T12:19:08.483Z,13.28
2023-05-19T12:20:08.472Z,13.31
2023-05-19T12:21:08.517Z,13.33
2023-05-19T12:22:08.574Z,13.31
2023-05-19T12:23:08.531Z,13.31
2023-05-19T12:24:08.527Z,13.18
2023-05-19T12:25:08.547Z,13.09
2023-05-19T12:26:08.549Z,13.04
2023-05-19T12:27:08.592Z,13.05
2023-05-19T12:28:08.663Z,13.03
2023-05-19T12:29:08.605Z,13.01
2023-05-19T12:30:08.626Z,13.01
2023-05-19T12:31:08.698Z,13.00
2023-05-19T12:32:08.750Z,13.00
2023-05-19T12:33:08.759Z,13.00
2023-05-19T12:34:08.678Z,13.01
2023-05-19T12:35:08.702Z,13.09
2023-05-19T12:36:08.735Z,13.09
2023-05-19T12:37:08.731Z,13.15
2023-05-19T12:38:08.745Z,13.23
2023-05-19T12:39:08.760Z,13.33
2023-05-19T12:40:08.866Z,13.35
2023-05-19T12:41:08.805Z,13.38
2023-05-19T12:42:08.820Z,13.41
2023-05-19T12:43:08.816Z,13.49
2023-05-19T12:44:08.829Z,13.53
2023-05-19T12:45:08.866Z,13.52
2023-05-19T12:46:08.903Z,13.50
2023-05-19T12:47:08.884Z,13.41
2023-05-19T12:48:08.915Z,13.41
2023-05-19T12:49:08.906Z,13.41
2023-05-19T12:50:09.076Z,13.42
2023-05-19T12:51:08.940Z,13.44
2023-05-19T12:52:12.769Z,13.42
2023-05-19T12:53:08.976Z,13.46
2023-05-19T12:54:09.066Z,13.50
2023-05-19T12:55:09.086Z,13.54
2023-05-19T12:56:09.013Z,13.54
2023-05-19T12:57:09.026Z,13.49
2023-05-19T12:58:09.067Z,13.42
2023-05-19T12:59:09.085Z,13.46
2023-05-19T13:00:09.145Z,13.52